createdAt,value
2022-12-25T00:02:19.241Z,23.80
2022-12-25T00:04:48.058Z,21.67
2022-12-25T00:07:16.995Z,22.67
2022-12-25T00:09:45.884Z,20.20
2022-12-25T00:12:19.461Z,20.90
2022-12-25T00:14:48.571Z,25.83
2022-12-25T00:17:21.355Z,20.07
2022-12-25T00:19:53.151Z,18.73
2022-12-25T00:22:21.723Z,20.23
2022-12-25T00:24:50.570Z,17.40
2022-12-25T00:27:21.741Z,19.47
2022-12-25T00:29:53.194Z,20.93
2022-12-25T00:32:23.343Z,22.90
2022-12-25T00:34:56.737Z,20.07
2022-12-25T00:37:25.459Z,20.47
2022-12-25T00:39:54.159Z,20.93
2022-12-25T00:42:24.046Z,21.23
2022-12-25T00:44:56.149Z,24.47
2022-12-25T00:47:26.503Z,23.17
2022-12-25T00:50:00.858Z,24.97
2022-12-25T00:52:31.460Z,22.83
2022-12-25T00:55:02.469Z,21.23
2022-12-25T00:57:31.363Z,23.23
2022-12-25T01:00:00.052Z,22.37
2022-12-25T01:02:30.498Z,25.50
2022-12-25T01:04:59.294Z,29.40
2022-12-25T01:07:30.569Z,22.53
2022-12-25T01:10:17.318Z,23.17
2022-12-25T01:12:45.875Z,24.90
2022-12-25T01:15:15.745Z,23.83
2022-12-25T01:17:49.234Z,23.57
2022-12-25T01:20:19.487Z,22.33
2022-12-25T01:22:47.926Z,23.03
2022-12-25T01:25:16.242Z,24.70
2022-12-25T01:27:45.020Z,24.63
2022-12-25T01:30:14.263Z,18.60
2022-12-25T01:32:44.150Z,25.83
2022-12-25T01:35:12.656Z,20.87
2022-12-25T01:37:42.420Z,24.27
2022-12-25T01:40:11.737Z,22.17
2022-12-25T01:42:40.444Z,19.77
2022-12-25T01:45:39.963Z,20.53
2022-12-25T01:48:15.824Z,18.17
2022-12-25T01:50:49.132Z,18.00
2022-12-25T01:53:17.798Z,18.67
2022-12-25T01:55:49.559Z,17.63
2022-12-25T01:58:19.212Z,16.83
2022-12-25T02:00:48.090Z,15.60
2022-12-25T02:03:18.232Z,15.23
2022-12-25T02:05:48.608Z,17.10
2022-12-25T02:08:19.924Z,15.00
2022-12-25T02:10:48.715Z,17.47
2022-12-25T02:13:20.544Z,16.93
2022-12-25T02:16:01.649Z,14.60
2022-12-25T02:18:43.361Z,16.57
2022-12-25T02:21:33.815Z,18.63
2022-12-25T02:24:32.886Z,16.13
2022-12-25T02:27:17.328Z,16.50
2022-12-25T02:29:54.715Z,18.73
2022-12-25T02:32:30.454Z,16.17
2022-12-25T02:35:06.973Z,18.83
2022-12-25T02:37:43.456Z,18.40
2022-12-25T02:40:18.485Z,18.97
2022-12-25T02:43:12.162Z,16.90
2022-12-25T02:46:07.294Z,17.17
2022-12-25T02:48:58.671Z,20.03
2022-12-25T02:51:48.101Z,19.73
2022-12-25T02:54:39.320Z,17.27
2022-12-25T02:57:30.086Z,23.23
2022-12-25T03:00:20.361Z,18.67
2022-12-25T03:03:10.562Z,20.17
2022-12-25T03:06:01.004Z,19.30
2022-12-25T03:08:36.310Z,18.43
2022-12-25T03:11:25.712Z,16.00
2022-12-25T03:14:18.793Z,19.07
2022-12-25T03:16:51.224Z,17.97
2022-12-25T03:19:40.926Z,18.00
2022-12-25T03:22:30.701Z,19.83
2022-12-25T03:25:16.907Z,19.90
2022-12-25T03:27:50.369Z,21.00
2022-12-25T03:30:37.142Z,20.93
2022-12-25T03:33:43.376Z,21.70
2022-12-25T03:36:14.059Z,18.40
2022-12-25T03:39:08.313Z,17.90
2022-12-25T03:42:15.528Z,17.47
2022-12-25T03:45:20.703Z,19.47
2022-12-25T03:48:13.592Z,20.37
2022-12-25T03:51:05.317Z,18.73
2022-12-25T03:53:59.920Z,17.83
2022-12-25T03:56:49.214Z,21.60
2022-12-25T03:59:38.842Z,21.40
2022-12-25T04:02:24.800Z,20.83
2022-12-25T04:05:10.446Z,22.23
2022-12-25T04:07:56.540Z,23.97
2022-12-25T04:10:43.920Z,22.73
2022-12-25T04:13:30.142Z,22.57
2022-12-25T04:16:16.571Z,22.33
2022-12-25T04:19:02.569Z,19.77
2022-12-25T04:21:48.479Z,20.70
2022-12-25T04:24:34.056Z,22.17
2022-12-25T04:27:21.326Z,24.07
2022-12-25T04:30:18.604Z,22.40
2022-12-25T04:33:04.565Z,23.13
2022-12-25T04:35:50.517Z,22.50
2022-12-25T04:38:21.027Z,20.73
2022-12-25T04:40:49.603Z,21.37
2022-12-25T04:43:19.435Z,22.13
2022-12-25T04:45:54.755Z,22.90
2022-12-25T04:48:23.517Z,21.73
2022-12-25T04:50:52.035Z,22.50
2022-12-25T04:53:20.676Z,25.70
2022-12-25T04:55:49.078Z,26.20
2022-12-25T04:58:18.813Z,24.00
2022-12-25T05:00:47.177Z,21.37
2022-12-25T05:03:15.711Z,21.57
2022-12-25T05:05:44.158Z,25.10
2022-12-25T05:08:12.593Z,22.50
2022-12-25T05:10:41.960Z,24.10
2022-12-25T05:13:10.370Z,27.40
2022-12-25T05:15:42.872Z,22.10
2022-12-25T05:18:11.468Z,22.53
2022-12-25T05:20:40.605Z,25.03
2022-12-25T05:23:11.736Z,25.03
2022-12-25T05:25:41.305Z,27.23
2022-12-25T05:28:09.759Z,29.73
2022-12-25T05:30:38.120Z,26.40
2022-12-25T05:33:08.277Z,26.07
2022-12-25T05:35:38.495Z,24.97
2022-12-25T05:38:07.596Z,24.67
2022-12-25T05:40:39.390Z,26.07
2022-12-25T05:43:08.012Z,29.33
2022-12-25T05:45:36.601Z,25.63
2022-12-25T05:48:05.400Z,30.50
2022-12-25T05:50:37.631Z,28.57
2022-12-25T05:53:08.482Z,31.40
2022-12-25T05:55:37.591Z,28.63
2022-12-25T05:58:07.488Z,27.57
2022-12-25T06:00:36.332Z,26.80
2022-12-25T06:03:05.242Z,27.60
2022-12-25T06:05:35.125Z,28.40
2022-12-25T06:08:03.573Z,25.03
2022-12-25T06:10:31.969Z,26.40
2022-12-25T06:13:00.899Z,26.13
2022-12-25T06:15:29.459Z,27.00
2022-12-25T06:17:57.925Z,30.07
2022-12-25T06:20:26.556Z,28.30
2022-12-25T06:22:56.950Z,27.67
2022-12-25T06:25:26.132Z,25.03
2022-12-25T06:27:54.523Z,28.67
2022-12-25T06:30:23.539Z,28.40
2022-12-25T06:32:54.591Z,25.60
2022-12-25T06:35:23.721Z,33.80
2022-12-25T06:37:52.600Z,27.00
2022-12-25T06:40:23.018Z,28.50
2022-12-25T06:42:53.063Z,28.57
2022-12-25T06:45:21.507Z,30.03
2022-12-25T06:47:50.059Z,25.97
2022-12-25T06:50:19.001Z,27.60
2022-12-25T06:52:47.400Z,31.67
2022-12-25T06:55:16.072Z,32.13
2022-12-25T06:57:45.898Z,31.20
2022-12-25T07:00:15.814Z,33.33
2022-12-25T07:02:49.550Z,34.50
2022-12-25T07:05:18.345Z,36.63
2022-12-25T07:07:46.818Z,37.87
2022-12-25T07:10:15.399Z,38.53
2022-12-25T07:12:45.321Z,41.43
2022-12-25T07:15:13.753Z,41.97
2022-12-25T07:17:42.154Z,40.80
2022-12-25T07:20:11.378Z,44.33
2022-12-25T07:22:39.825Z,42.33
2022-12-25T07:25:09.545Z,45.07
2022-12-25T07:27:37.901Z,43.63
2022-12-25T07:30:09.990Z,38.63
2022-12-25T07:32:38.488Z,38.47
2022-12-25T07:35:07.670Z,36.23
2022-12-25T07:37:36.268Z,36.43
2022-12-25T07:40:05.655Z,35.83
2022-12-25T07:42:34.036Z,33.93
2022-12-25T07:45:02.366Z,37.97
2022-12-25T07:47:32.115Z,32.90
2022-12-25T07:50:00.578Z,35.37
2022-12-25T07:52:31.291Z,35.67
2022-12-25T07:55:00.758Z,31.70
2022-12-25T07:57:29.806Z,30.10
2022-12-25T07:59:58.193Z,30.43
2022-12-25T08:02:29.097Z,30.73
2022-12-25T08:04:59.628Z,33.33
2022-12-25T08:07:28.066Z,31.40
2022-12-25T08:09:56.472Z,35.33
2022-12-25T08:12:24.910Z,31.57
2022-12-25T08:14:53.385Z,33.90
2022-12-25T08:17:21.964Z,29.67
2022-12-25T08:19:50.346Z,32.27
2022-12-25T08:22:20.101Z,31.13
2022-12-25T08:24:48.901Z,31.47
2022-12-25T08:27:17.285Z,31.37
2022-12-25T08:29:45.890Z,26.77
2022-12-25T08:32:14.370Z,24.47
2022-12-25T08:34:42.907Z,27.50
2022-12-25T08:37:11.334Z,28.77
2022-12-25T08:39:41.201Z,26.03
2022-12-25T08:42:09.577Z,24.90
2022-12-25T08:44:39.568Z,26.13
2022-12-25T08:47:08.230Z,27.93
2022-12-25T08:49:36.841Z,28.00
2022-12-25T08:52:05.538Z,27.47
2022-12-25T08:54:36.586Z,26.57
2022-12-25T08:57:06.604Z,25.00
2022-12-25T08:59:35.294Z,22.97
2022-12-25T09:02:03.874Z,26.13
2022-12-25T09:04:32.417Z,28.00
2022-12-25T09:07:01.021Z,24.27
2022-12-25T09:09:29.913Z,24.70
2022-12-25T09:11:58.335Z,27.13
2022-12-25T09:14:28.031Z,28.93
2022-12-25T09:16:56.463Z,27.20
2022-12-25T09:19:25.187Z,27.00
2022-12-25T09:21:53.970Z,27.20
2022-12-25T09:24:22.881Z,29.90
2022-12-25T09:26:51.422Z,27.70
2022-12-25T09:29:19.896Z,29.00
2022-12-25T09:31:50.130Z,29.07
2022-12-25T09:34:19.210Z,26.30
2022-12-25T09:36:47.654Z,23.30
2022-12-25T09:39:16.125Z,28.33
2022-12-25T09:41:57.099Z,25.07
2022-12-25T09:44:30.100Z,23.20
2022-12-25T09:47:03.913Z,26.43
2022-12-25T09:49:42.109Z,23.80
2022-12-25T09:52:16.972Z,25.10
2022-12-25T09:54:56.021Z,26.17
2022-12-25T09:57:27.350Z,26.03
2022-12-25T09:59:57.168Z,25.77
2022-12-25T10:02:55.534Z,22.30
2022-12-25T10:05:48.459Z,21.00
2022-12-25T10:08:26.704Z,22.30
2022-12-25T10:11:06.396Z,23.17
2022-12-25T10:14:01.056Z,28.63
2022-12-25T10:16:39.771Z,21.20
2022-12-25T10:19:29.693Z,19.67
2022-12-25T10:22:03.323Z,23.00
2022-12-25T10:24:37.721Z,28.87
2022-12-25T10:27:16.336Z,28.53
2022-12-25T10:29:46.636Z,23.30
2022-12-25T10:32:15.464Z,22.37
2022-12-25T10:34:45.211Z,19.70
2022-12-25T10:37:15.267Z,23.20
2022-12-25T10:39:46.820Z,20.67
2022-12-25T10:42:40.548Z,22.60
2022-12-25T10:45:10.784Z,19.37
2022-12-25T10:47:42.720Z,22.47
2022-12-25T10:50:21.375Z,22.13
2022-12-25T10:52:57.926Z,21.37
2022-12-25T10:55:29.216Z,22.20
2022-12-25T10:57:58.982Z,20.03
2022-12-25T11:00:29.988Z,17.57
2022-12-25T11:02:59.542Z,17.90
2022-12-25T11:05:32.526Z,16.83
2022-12-25T11:08:03.525Z,18.10
2022-12-25T11:10:35.880Z,20.83
2022-12-25T11:13:07.845Z,16.10
2022-12-25T11:15:40.222Z,18.90
2022-12-25T11:18:22.029Z,20.33
2022-12-25T11:20:54.248Z,16.63
2022-12-25T11:23:26.620Z,17.20
2022-12-25T11:25:59.240Z,19.87
2022-12-25T11:28:30.158Z,16.67
2022-12-25T11:31:02.593Z,21.47
2022-12-25T11:33:36.857Z,17.67
2022-12-25T11:36:28.277Z,19.50
2022-12-25T11:38:57.358Z,19.37
2022-12-25T11:41:35.323Z,20.40
2022-12-25T11:44:20.137Z,18.87
2022-12-25T11:46:52.286Z,19.33
2022-12-25T11:49:22.515Z,19.57
2022-12-25T11:51:57.610Z,21.57
2022-12-25T11:54:33.173Z,24.37
2022-12-25T11:57:05.588Z,21.90
2022-12-25T11:59:42.414Z,20.13
2022-12-25T12:02:26.925Z,20.67
2022-12-25T12:05:09.681Z,20.40
2022-12-25T12:07:58.231Z,21.50
2022-12-25T12:10:38.613Z,18.53
2022-12-25T12:13:27.177Z,21.80
2022-12-25T12:15:55.889Z,18.43
2022-12-25T12:18:32.858Z,20.17
2022-12-25T12:21:05.516Z,21.73
2022-12-25T12:23:48.992Z,22.80
2022-12-25T12:26:21.433Z,20.63
2022-12-25T12:28:52.421Z,17.93
2022-12-25T12:31:21.257Z,22.23
2022-12-25T12:33:55.167Z,20.70
2022-12-25T12:36:35.790Z,20.03
2022-12-25T12:39:06.919Z,22.73
2022-12-25T12:41:47.337Z,23.67
2022-12-25T12:44:18.486Z,23.10
2022-12-25T12:46:55.501Z,22.37
2022-12-25T12:49:26.626Z,21.80
2022-12-25T12:52:06.874Z,21.47
2022-12-25T12:54:58.372Z,21.27
2022-12-25T12:57:32.771Z,19.33
2022-12-25T13:00:09.885Z,23.87
2022-12-25T13:03:07.408Z,23.33
2022-12-25T13:05:41.944Z,23.13
2022-12-25T13:08:33.365Z,23.13
2022-12-25T13:11:16.001Z,23.60
2022-12-25T13:13:47.461Z,22.80
2022-12-25T13:16:25.982Z,23.57
2022-12-25T13:18:57.123Z,25.37
2022-12-25T13:21:28.546Z,23.63
2022-12-25T13:24:01.813Z,26.33
2022-12-25T13:26:32.277Z,22.03
2022-12-25T13:29:02.002Z,22.30
2022-12-25T13:31:32.609Z,26.77
2022-12-25T13:34:06.818Z,25.13
2022-12-25T13:36:40.229Z,23.03
2022-12-25T13:39:14.310Z,28.87
2022-12-25T13:42:04.631Z,26.07
2022-12-25T13:44:44.498Z,26.70
2022-12-25T13:47:25.310Z,25.37
2022-12-25T13:49:56.387Z,29.23
2022-12-25T13:52:34.363Z,27.63
2022-12-25T13:55:05.722Z,28.87
2022-12-25T13:57:41.945Z,26.73
2022-12-25T14:00:21.477Z,26.33
2022-12-25T14:02:51.082Z,28.00
2022-12-25T14:05:30.649Z,25.33
2022-12-25T14:08:05.045Z,29.50
2022-12-25T14:10:39.157Z,30.67
2022-12-25T14:13:14.144Z,28.60
2022-12-25T14:15:45.009Z,28.30
2022-12-25T14:18:16.508Z,34.33
2022-12-25T14:21:00.306Z,38.37
2022-12-25T14:23:34.683Z,34.30
2022-12-25T14:26:03.359Z,36.43
2022-12-25T14:28:34.539Z,35.73
2022-12-25T14:31:05.075Z,31.90
2022-12-25T14:33:39.673Z,35.67
2022-12-25T14:36:12.222Z,37.77
2022-12-25T14:38:42.602Z,33.77
2022-12-25T14:41:33.309Z,36.07
2022-12-25T14:44:06.938Z,33.07
2022-12-25T14:46:37.267Z,32.80
2022-12-25T14:49:26.403Z,34.70
2022-12-25T14:51:54.872Z,36.23
2022-12-25T14:54:24.685Z,35.33
2022-12-25T14:56:56.293Z,37.50
2022-12-25T14:59:28.271Z,32.10
2022-12-25T15:02:01.019Z,35.33
2022-12-25T15:04:30.770Z,34.00
2022-12-25T15:07:07.183Z,40.00
2022-12-25T15:11:10.639Z,35.23
2022-12-25T15:13:39.033Z,35.40
2022-12-25T15:16:15.914Z,35.03
2022-12-25T15:18:47.615Z,34.70
2022-12-25T15:21:21.734Z,37.63
2022-12-25T15:23:50.278Z,33.73
2022-12-25T15:26:20.074Z,34.30
2022-12-25T15:28:48.765Z,37.80
2022-12-25T15:31:25.249Z,35.00
2022-12-25T15:33:54.540Z,37.30
2022-12-25T15:36:23.365Z,41.43
2022-12-25T15:38:52.621Z,37.57
2022-12-25T15:41:45.072Z,34.20
2022-12-25T15:44:15.435Z,36.43
2022-12-25T15:46:44.360Z,35.20
2022-12-25T15:49:13.569Z,38.93
2022-12-25T15:51:42.999Z,38.50
2022-12-25T15:54:11.989Z,40.43
2022-12-25T15:56:46.091Z,42.60
2022-12-25T15:59:16.035Z,40.30
2022-12-25T16:01:49.751Z,45.77
2022-12-25T16:04:18.802Z,50.57
2022-12-25T16:06:48.128Z,54.80
2022-12-25T16:09:20.081Z,57.10
2022-12-25T16:11:50.818Z,52.07
2022-12-25T16:14:20.570Z,57.73
2022-12-25T16:16:49.024Z,57.00
2022-12-25T16:19:18.739Z,55.83
2022-12-25T16:21:48.601Z,56.33
2022-12-25T16:24:17.364Z,55.07
2022-12-25T16:26:46.505Z,58.87
2022-12-25T16:29:16.352Z,51.83
2022-12-25T16:31:45.603Z,56.23
2022-12-25T16:34:14.238Z,49.83
2022-12-25T16:36:42.806Z,46.93
2022-12-25T16:39:11.284Z,52.93
2022-12-25T16:41:41.126Z,54.00
2022-12-25T16:44:11.166Z,54.13
2022-12-25T16:46:42.707Z,59.43
2022-12-25T16:49:11.182Z,51.40
2022-12-25T16:51:39.731Z,58.63
2022-12-25T16:54:09.602Z,54.63
2022-12-25T16:56:38.704Z,56.30
2022-12-25T16:59:08.421Z,60.97
2022-12-25T17:01:38.071Z,60.43
2022-12-25T17:04:08.417Z,56.23
2022-12-25T17:06:38.403Z,58.03
2022-12-25T17:09:07.634Z,63.13
2022-12-25T17:11:37.166Z,55.73
2022-12-25T17:14:06.907Z,61.33
2022-12-25T17:16:38.049Z,61.17
2022-12-25T17:19:16.432Z,57.50
2022-12-25T17:21:44.971Z,54.93
2022-12-25T17:24:13.579Z,65.50
2022-12-25T17:26:43.937Z,53.60
2022-12-25T17:29:17.152Z,52.90
2022-12-25T17:31:50.266Z,53.60
2022-12-25T17:34:20.391Z,51.67
2022-12-25T17:36:49.674Z,50.63
2022-12-25T17:39:19.047Z,61.97
2022-12-25T17:41:50.634Z,55.77
2022-12-25T17:44:21.053Z,51.63
2022-12-25T17:46:50.407Z,45.50
2022-12-25T17:49:24.396Z,51.23
2022-12-25T17:51:55.239Z,47.10
2022-12-25T17:54:25.416Z,47.07
2022-12-25T17:56:53.820Z,47.03
2022-12-25T17:59:28.609Z,56.37
2022-12-25T18:01:57.456Z,53.90
2022-12-25T18:04:29.687Z,55.67
2022-12-25T18:06:58.286Z,54.17
2022-12-25T18:09:28.372Z,47.53
2022-12-25T18:11:57.079Z,60.77
2022-12-25T18:14:25.972Z,54.10
2022-12-25T18:16:54.565Z,48.67
2022-12-25T18:19:23.848Z,58.90
2022-12-25T18:21:56.226Z,51.50
2022-12-25T18:24:25.133Z,52.27
2022-12-25T18:26:54.178Z,53.40
2022-12-25T18:29:22.717Z,48.77
2022-12-25T18:31:51.314Z,56.77
2022-12-25T18:34:19.962Z,52.77
2022-12-25T18:36:48.426Z,52.30
2022-12-25T18:39:18.621Z,54.70
2022-12-25T18:42:06.005Z,46.90
2022-12-25T18:44:34.475Z,47.30
2022-12-25T18:47:03.186Z,43.93
2022-12-25T18:49:31.634Z,53.40
2022-12-25T18:52:49.609Z,49.23
2022-12-25T18:54:50.391Z,48.63
2022-12-25T18:57:20.045Z,51.67
2022-12-25T18:59:48.496Z,58.70
2022-12-25T19:02:17.886Z,62.13
2022-12-25T19:04:47.646Z,50.63
2022-12-25T19:07:16.028Z,58.07
2022-12-25T19:09:45.034Z,49.37
2022-12-25T19:12:14.888Z,59.50
2022-12-25T19:14:47.846Z,55.50
2022-12-25T19:17:17.456Z,62.00
2022-12-25T19:19:48.024Z,47.87
2022-12-25T19:22:16.627Z,50.27
2022-12-25T19:24:48.044Z,49.43
2022-12-25T19:27:19.953Z,52.20
2022-12-25T19:29:48.742Z,60.43
2022-12-25T19:32:18.643Z,51.70
2022-12-25T19:34:47.413Z,49.53
2022-12-25T19:37:16.467Z,52.77
2022-12-25T19:39:46.968Z,49.33
2022-12-25T19:42:22.078Z,48.70
2022-12-25T19:44:50.544Z,45.40
2022-12-25T19:47:19.131Z,49.63
2022-12-25T19:49:52.694Z,53.33
2022-12-25T19:52:21.785Z,54.60
2022-12-25T19:54:54.073Z,58.43
2022-12-25T19:57:24.235Z,52.97
2022-12-25T19:59:52.685Z,47.70
2022-12-25T20:02:21.220Z,45.00
2022-12-25T20:04:51.210Z,41.87
2022-12-25T20:07:19.641Z,54.90
2022-12-25T20:09:48.354Z,54.73
2022-12-25T20:12:16.770Z,50.37
2022-12-25T20:14:46.806Z,48.73
2022-12-25T20:17:16.238Z,46.80
2022-12-25T20:19:44.850Z,50.77
2022-12-25T20:22:13.239Z,38.87
2022-12-25T20:24:41.633Z,41.93
2022-12-25T20:27:10.374Z,42.17
2022-12-25T20:29:39.153Z,36.67
2022-12-25T20:32:14.898Z,40.80
2022-12-25T20:34:43.599Z,41.50
2022-12-25T20:37:12.172Z,43.63
2022-12-25T20:39:40.740Z,40.83
2022-12-25T20:42:09.442Z,41.53
2022-12-25T20:44:39.265Z,36.47
2022-12-25T20:47:07.672Z,33.33
2022-12-25T20:49:38.125Z,36.43
2022-12-25T20:52:06.961Z,32.77
2022-12-25T20:54:35.929Z,32.30
2022-12-25T20:57:04.563Z,35.43
2022-12-25T20:59:37.427Z,33.20
2022-12-25T21:02:06.537Z,36.90
2022-12-25T21:04:36.740Z,35.87
2022-12-25T21:07:08.626Z,33.37
2022-12-25T21:09:37.002Z,36.43
2022-12-25T21:12:05.956Z,34.07
2022-12-25T21:14:34.805Z,37.43
2022-12-25T21:17:03.584Z,33.73
2022-12-25T21:19:32.089Z,26.57
2022-12-25T21:22:02.316Z,33.57
2022-12-25T21:24:30.863Z,36.80
2022-12-25T21:26:59.521Z,28.33
2022-12-25T21:29:28.039Z,31.40
2022-12-25T21:32:14.196Z,31.97
2022-12-25T21:34:42.834Z,31.13
2022-12-25T21:37:12.967Z,34.10
2022-12-25T21:39:41.759Z,27.93
2022-12-25T21:42:10.183Z,34.10
2022-12-25T21:44:38.648Z,41.50
2022-12-25T21:47:07.758Z,36.73
2022-12-25T21:49:53.453Z,35.93
2022-12-25T21:52:24.959Z,33.47
2022-12-25T21:54:54.029Z,34.17
2022-12-25T21:57:22.943Z,35.67
2022-12-25T21:59:51.365Z,32.70
2022-12-25T22:02:20.030Z,37.57
2022-12-25T22:04:48.583Z,34.20
2022-12-25T22:07:18.790Z,34.90
2022-12-25T22:09:50.677Z,37.37
2022-12-25T22:12:39.994Z,41.17
2022-12-25T22:15:11.122Z,34.83
2022-12-25T22:17:59.114Z,35.03
2022-12-25T22:20:31.292Z,36.43
2022-12-25T22:23:00.192Z,38.17
2022-12-25T22:25:30.608Z,38.23
2022-12-25T22:27:59.511Z,39.67
2022-12-25T22:30:30.828Z,38.97
2022-12-25T22:33:00.041Z,36.20
2022-12-25T22:35:28.542Z,35.77
2022-12-25T22:37:57.396Z,33.83
2022-12-25T22:40:25.790Z,36.50
2022-12-25T22:42:56.862Z,40.97
2022-12-25T22:45:25.404Z,37.80
2022-12-25T22:47:53.930Z,39.67
2022-12-25T22:50:22.482Z,37.73
2022-12-25T22:52:51.244Z,38.37
2022-12-25T22:55:20.692Z,39.87
2022-12-25T22:57:50.495Z,35.93
2022-12-25T23:00:20.435Z,36.07
2022-12-25T23:02:49.214Z,39.73
2022-12-25T23:05:17.918Z,37.63
2022-12-25T23:07:46.393Z,36.20
2022-12-25T23:10:14.884Z,35.07
2022-12-25T23:13:00.755Z,37.43
2022-12-25T23:15:31.717Z,34.47
2022-12-25T23:18:17.252Z,33.33
2022-12-25T23:21:03.225Z,29.63
2022-12-25T23:23:49.324Z,29.37
2022-12-25T23:26:20.389Z,29.43
2022-12-25T23:29:06.428Z,33.27
2022-12-25T23:31:39.967Z,27.17
2022-12-25T23:34:10.282Z,30.13
2022-12-25T23:36:38.819Z,31.83
2022-12-25T23:39:10.397Z,30.27
2022-12-25T23:41:39.635Z,27.50
2022-12-25T23:44:09.968Z,30.97
2022-12-25T23:46:40.726Z,28.57
2022-12-25T23:49:10.072Z,31.60
2022-12-25T23:51:43.047Z,32.50
2022-12-25T23:54:13.927Z,30.17
2022-12-25T23:56:43.675Z,31.47
2022-12-25T23:59:13.966Z,33.53
